createdAt,value
2018-03-20T00:00:08.916Z,62.40
2018-03-20T00:02:37.188Z,62.99
2018-03-20T00:05:05.490Z,62.82
2018-03-20T00:07:33.855Z,62.72
2018-03-20T00:10:02.121Z,63.40
2018-03-20T00:12:31.909Z,63.25
2018-03-20T00:15:00.933Z,63.56
2018-03-20T00:17:29.283Z,63.85
2018-03-20T00:19:57.600Z,64.36
2018-03-20T00:22:26.001Z,64.57
2018-03-20T00:24:54.318Z,64.37
2018-03-20T00:27:23.370Z,64.98
2018-03-20T00:29:51.630Z,65.75
2018-03-20T00:32:19.896Z,67.09
2018-03-20T00:34:48.933Z,66.70
2018-03-20T00:37:17.239Z,66.80
2018-03-20T00:39:45.510Z,67.38
2018-03-20T00:42:13.794Z,67.56
2018-03-20T00:44:42.052Z,67.06
2018-03-20T00:47:10.338Z,67.38
2018-03-20T00:49:38.612Z,67.72
2018-03-20T00:52:07.000Z,67.15
2018-03-20T00:54:35.272Z,67.07
2018-03-20T00:57:03.558Z,67.48
2018-03-20T00:59:31.824Z,67.61
2018-03-20T01:02:00.152Z,67.77
2018-03-20T01:04:28.547Z,68.32
2018-03-20T01:06:57.049Z,68.58
2018-03-20T01:09:26.291Z,69.43
2018-03-20T01:11:54.744Z,69.75
2018-03-20T01:14:23.840Z,69.70
2018-03-20T01:16:52.124Z,68.99
2018-03-20T01:19:20.380Z,69.10
2018-03-20T01:21:49.438Z,68.64
2018-03-20T01:24:17.764Z,69.26
2018-03-20T01:26:46.793Z,70.45
2018-03-20T01:29:15.837Z,71.17
2018-03-20T01:31:44.207Z,70.67
2018-03-20T01:34:12.513Z,70.91
2018-03-20T01:36:40.782Z,71.71
2018-03-20T01:39:09.052Z,72.12
2018-03-20T01:41:38.078Z,72.61
2018-03-20T01:44:06.364Z,73.58
2018-03-20T01:46:35.385Z,73.44
2018-03-20T01:49:03.672Z,74.40
2018-03-20T01:51:31.932Z,74.07
2018-03-20T01:54:01.056Z,74.36
2018-03-20T01:56:29.415Z,74.37
2018-03-20T01:58:57.703Z,74.40
2018-03-20T02:01:26.066Z,74.33
2018-03-20T02:03:54.372Z,74.77
2018-03-20T02:06:23.603Z,74.63
2018-03-20T02:08:52.020Z,75.04
2018-03-20T02:11:20.284Z,75.45
2018-03-20T02:13:49.333Z,75.56
2018-03-20T02:16:17.610Z,75.37
2018-03-20T02:18:46.645Z,74.57
2018-03-20T02:21:14.925Z,74.24
2018-03-20T02:23:43.218Z,73.88
2018-03-20T02:26:11.485Z,74.91
2018-03-20T02:28:39.768Z,74.66
2018-03-20T02:31:08.026Z,75.11
2018-03-20T02:33:36.313Z,75.51
2018-03-20T02:36:04.570Z,75.35
2018-03-20T02:38:33.616Z,74.75
2018-03-20T02:41:02.658Z,74.92
2018-03-20T02:43:30.937Z,75.17
2018-03-20T02:45:59.984Z,75.74
2018-03-20T02:48:28.373Z,75.96
2018-03-20T02:50:56.768Z,76.76
2018-03-20T02:53:26.666Z,76.91
2018-03-20T02:55:54.977Z,76.91
2018-03-20T02:58:23.358Z,75.92
2018-03-20T03:00:51.641Z,75.93
2018-03-20T03:03:19.917Z,76.89
2018-03-20T03:05:48.214Z,76.31
2018-03-20T03:08:16.484Z,77.34
2018-03-20T03:10:45.563Z,77.44
2018-03-20T03:13:13.939Z,77.50
2018-03-20T03:15:42.213Z,78.16
2018-03-20T03:18:10.508Z,78.30
2018-03-20T03:20:38.772Z,77.73
2018-03-20T03:23:07.172Z,77.46
2018-03-20T03:25:35.422Z,77.66
2018-03-20T03:28:04.469Z,77.02
2018-03-20T03:30:32.749Z,77.36
2018-03-20T03:33:01.009Z,77.07
2018-03-20T03:35:30.101Z,76.46
2018-03-20T03:37:58.452Z,77.63
2018-03-20T03:40:26.845Z,77.32
2018-03-20T03:42:55.286Z,77.74
2018-03-20T03:45:23.624Z,76.87
2018-03-20T03:47:51.896Z,76.81
2018-03-20T03:50:20.174Z,76.78
2018-03-20T03:52:49.195Z,76.63
2018-03-20T03:55:17.689Z,76.83
2018-03-20T03:57:46.787Z,75.84
2018-03-20T04:00:15.908Z,75.68
2018-03-20T04:02:44.190Z,75.45
2018-03-20T04:05:13.261Z,75.93
2018-03-20T04:07:42.683Z,77.45
2018-03-20T04:10:11.733Z,77.73
2018-03-20T04:12:40.010Z,78.37
2018-03-20T04:15:09.048Z,78.27
2018-03-20T04:17:37.318Z,78.68
2018-03-20T04:20:05.701Z,78.87
2018-03-20T04:22:35.469Z,78.92
2018-03-20T04:25:03.760Z,79.39
2018-03-20T04:27:32.026Z,79.19
2018-03-20T04:30:00.350Z,79.27
2018-03-20T04:32:28.701Z,80.10
2018-03-20T04:34:57.060Z,80.11
2018-03-20T04:37:25.433Z,80.41
2018-03-20T04:39:53.816Z,81.43
2018-03-20T04:42:22.079Z,81.74
2018-03-20T04:44:51.148Z,82.37
2018-03-20T04:47:19.406Z,82.34
2018-03-20T04:49:48.564Z,82.45
2018-03-20T04:52:16.833Z,82.30
2018-03-20T04:54:45.146Z,82.27
2018-03-20T04:57:13.513Z,82.46
2018-03-20T04:59:41.788Z,81.24
2018-03-20T05:02:10.841Z,81.44
2018-03-20T05:04:39.112Z,81.64
2018-03-20T05:07:07.375Z,81.61
2018-03-20T05:09:36.431Z,81.18
2018-03-20T05:12:04.700Z,81.13
2018-03-20T05:14:32.993Z,81.20
2018-03-20T05:17:01.260Z,81.24
2018-03-20T05:19:32.778Z,81.17
2018-03-20T05:22:06.445Z,80.94
2018-03-20T05:24:34.736Z,81.15
2018-03-20T05:27:03.000Z,80.42
2018-03-20T05:29:31.285Z,80.24
2018-03-20T05:31:59.580Z,81.00
2018-03-20T05:34:28.721Z,80.98
2018-03-20T05:36:57.124Z,80.86
2018-03-20T05:39:25.515Z,80.39
2018-03-20T05:41:53.887Z,80.55
2018-03-20T05:44:22.981Z,79.87
2018-03-20T05:50:13.888Z,78.09
2018-03-20T05:52:42.177Z,77.58
2018-03-20T05:55:10.480Z,76.67
2018-03-20T05:57:38.749Z,76.23
2018-03-20T06:00:07.017Z,75.70
2018-03-20T06:02:36.060Z,75.59
2018-03-20T06:05:04.363Z,75.64
2018-03-20T06:07:32.633Z,74.16
2018-03-20T06:10:00.904Z,74.05
2018-03-20T06:12:29.213Z,73.16
2018-03-20T06:14:57.628Z,74.19
2018-03-20T06:17:25.983Z,72.51
2018-03-20T06:19:54.375Z,71.99
2018-03-20T06:22:22.695Z,71.48
2018-03-20T06:24:50.979Z,72.37
2018-03-20T06:27:19.262Z,72.66
2018-03-20T06:29:47.642Z,72.78
2018-03-20T06:32:15.965Z,72.53
2018-03-20T06:34:44.292Z,70.76
2018-03-20T06:37:12.690Z,71.49
2018-03-20T06:39:40.985Z,71.51
2018-03-20T06:42:09.260Z,71.13
2018-03-20T06:44:37.535Z,70.62
2018-03-20T06:47:06.576Z,71.51
2018-03-20T06:49:34.853Z,71.03
2018-03-20T06:52:03.136Z,70.49
2018-03-20T06:54:31.405Z,69.62
2018-03-20T06:56:59.752Z,70.15
2018-03-20T06:59:28.101Z,69.51
2018-03-20T07:01:57.324Z,68.16
2018-03-20T07:04:25.683Z,67.68
2018-03-20T07:06:54.467Z,67.55
2018-03-20T07:09:22.751Z,66.86
2018-03-20T07:11:51.054Z,67.79
2018-03-20T07:14:19.317Z,66.68
2018-03-20T07:16:47.637Z,64.30
2018-03-20T07:19:15.926Z,66.73
2018-03-20T07:21:45.009Z,66.04
2018-03-20T07:24:13.293Z,65.82
2018-03-20T07:26:41.578Z,64.73
2018-03-20T07:29:09.880Z,64.92
2018-03-20T07:31:38.165Z,64.03
2018-03-20T07:34:06.440Z,63.59
2018-03-20T07:36:34.698Z,64.01
2018-03-20T07:39:03.746Z,63.49
2018-03-20T07:41:32.005Z,63.29
2018-03-20T07:44:00.360Z,63.25
2018-03-20T07:46:28.990Z,63.30
2018-03-20T07:48:57.348Z,63.29
2018-03-20T07:51:25.706Z,61.06
2018-03-20T07:53:54.601Z,61.75
2018-03-20T07:56:22.902Z,61.77
2018-03-20T07:58:51.970Z,61.29
2018-03-20T08:01:20.260Z,61.13
2018-03-20T08:03:48.537Z,62.49
2018-03-20T08:06:17.675Z,63.41
2018-03-20T08:08:45.956Z,61.98
2018-03-20T08:11:14.229Z,60.25
2018-03-20T08:13:43.281Z,61.65
2018-03-20T08:16:11.646Z,60.63
2018-03-20T08:18:39.937Z,60.26
2018-03-20T08:21:08.200Z,60.91
2018-03-20T08:23:37.244Z,59.64
2018-03-20T08:26:05.500Z,57.59
2018-03-20T08:28:34.600Z,59.77
2018-03-20T08:31:02.839Z,58.99
2018-03-20T08:33:31.161Z,58.91
2018-03-20T08:35:59.513Z,59.29
2018-03-20T08:38:27.983Z,58.17
2018-03-20T08:40:56.383Z,57.81
2018-03-20T08:43:24.772Z,58.71
2018-03-20T08:45:53.038Z,57.22
2018-03-20T08:48:21.331Z,56.36
2018-03-20T08:50:49.602Z,57.20
2018-03-20T08:53:17.876Z,56.79
2018-03-20T08:55:46.188Z,57.21
2018-03-20T08:58:15.292Z,56.21
2018-03-20T09:00:43.551Z,54.60
2018-03-20T09:03:11.837Z,53.42
2018-03-20T09:05:40.087Z,53.62
2018-03-20T09:08:08.364Z,54.24
2018-03-20T09:10:37.380Z,54.18
2018-03-20T09:13:05.648Z,54.12
2018-03-20T09:15:34.675Z,54.92
2018-03-20T09:18:02.964Z,52.24
2018-03-20T09:20:31.998Z,51.96
2018-03-20T09:23:00.302Z,52.52
2018-03-20T09:25:28.686Z,52.25
2018-03-20T09:27:57.180Z,52.58
2018-03-20T09:30:25.685Z,52.03
2018-03-20T09:32:54.450Z,52.46
2018-03-20T09:35:22.718Z,52.82
2018-03-20T09:37:51.748Z,53.10
2018-03-20T09:40:20.020Z,53.74
2018-03-20T09:42:49.127Z,53.09
2018-03-20T09:45:18.173Z,54.32
2018-03-20T09:47:46.420Z,52.05
2018-03-20T09:50:15.488Z,51.53
2018-03-20T09:52:43.892Z,52.51
2018-03-20T09:55:12.195Z,51.25
2018-03-20T09:57:40.572Z,51.92
2018-03-20T10:00:08.901Z,50.75
2018-03-20T10:02:37.148Z,49.74
2018-03-20T10:05:05.411Z,49.45
2018-03-20T10:07:33.673Z,48.55
2018-03-20T10:10:01.952Z,49.03
2018-03-20T10:12:30.257Z,48.97
2018-03-20T10:14:58.651Z,47.63
2018-03-20T10:17:27.098Z,48.60
2018-03-20T10:19:56.507Z,48.72
2018-03-20T10:22:24.906Z,48.54
2018-03-20T10:24:54.405Z,48.28
2018-03-20T10:27:22.678Z,48.75
2018-03-20T10:29:51.061Z,48.65
2018-03-20T10:32:20.079Z,49.57
2018-03-20T10:34:48.350Z,48.40
2018-03-20T10:37:16.609Z,48.08
2018-03-20T10:39:45.681Z,47.03
2018-03-20T10:42:13.979Z,45.98
2018-03-20T10:44:43.033Z,46.86
2018-03-20T10:47:11.352Z,44.82
2018-03-20T10:49:39.622Z,46.10
2018-03-20T10:52:07.853Z,43.06
2018-03-20T10:54:36.915Z,43.15
2018-03-20T10:57:05.170Z,43.31
2018-03-20T10:59:34.243Z,40.97
2018-03-20T11:02:07.983Z,40.47
2018-03-20T11:04:36.259Z,38.56
2018-03-20T11:07:04.508Z,36.66
2018-03-20T11:09:32.901Z,37.11
2018-03-20T11:12:01.188Z,38.00
2018-03-20T11:14:29.625Z,38.25
2018-03-20T11:16:58.043Z,38.45
2018-03-20T11:19:27.240Z,39.29
2018-03-20T11:21:56.399Z,43.20
2018-03-20T11:24:24.764Z,41.67
2018-03-20T11:26:53.201Z,39.12
2018-03-20T11:29:21.496Z,37.70
2018-03-20T11:31:49.847Z,39.80
2018-03-20T11:34:19.008Z,40.88
2018-03-20T11:36:47.316Z,39.83
2018-03-20T11:39:15.575Z,41.09
2018-03-20T11:41:43.924Z,38.12
2018-03-20T11:44:12.192Z,38.70
2018-03-20T11:46:41.258Z,40.26
2018-03-20T11:49:09.488Z,41.58
2018-03-20T11:51:38.529Z,38.62
2018-03-20T11:54:06.780Z,39.62
2018-03-20T11:56:35.054Z,39.62
2018-03-20T11:59:03.317Z,39.84
2018-03-20T12:01:31.576Z,39.55
2018-03-20T12:03:59.873Z,39.45
2018-03-20T12:06:28.231Z,38.34
2018-03-20T12:12:04.976Z,39.04
2018-03-20T12:14:33.249Z,37.33
2018-03-20T12:17:02.336Z,35.52
2018-03-20T12:19:30.607Z,36.57
2018-03-20T12:21:58.883Z,36.74
2018-03-20T12:24:27.198Z,36.66
2018-03-20T12:26:55.538Z,36.02
2018-03-20T12:29:23.807Z,35.97
2018-03-20T12:31:52.142Z,37.86
2018-03-20T12:34:21.139Z,39.95
2018-03-20T12:36:49.460Z,43.32
2018-03-20T12:39:17.708Z,43.78
2018-03-20T12:41:46.017Z,43.21
2018-03-20T12:44:14.368Z,44.25
2018-03-20T12:46:44.036Z,45.51
2018-03-20T12:49:12.306Z,51.42
2018-03-20T12:51:40.589Z,57.56
2018-03-20T12:54:08.842Z,62.19
2018-03-20T12:56:37.937Z,69.70
2018-03-20T12:59:06.187Z,73.52
2018-03-20T13:01:35.232Z,73.73
2018-03-20T13:04:03.489Z,70.21
2018-03-20T13:06:31.757Z,74.35
2018-03-20T13:09:00.013Z,70.38
2018-03-20T13:11:29.070Z,68.67
2018-03-20T13:13:58.123Z,68.48
2018-03-20T13:16:26.421Z,69.68
2018-03-20T13:18:55.477Z,65.89
2018-03-20T13:21:23.765Z,65.86
2018-03-20T13:23:52.833Z,68.44
2018-03-20T13:26:21.897Z,69.04
2018-03-20T13:28:50.153Z,66.05
2018-03-20T13:31:18.432Z,66.40
2018-03-20T13:33:46.728Z,64.14
2018-03-20T13:36:15.081Z,66.25
2018-03-20T13:38:43.367Z,67.40
2018-03-20T13:41:11.630Z,68.41
2018-03-20T13:43:39.876Z,67.90
2018-03-20T13:46:08.154Z,67.65
2018-03-20T13:48:37.159Z,63.60
2018-03-20T13:51:06.183Z,66.27
2018-03-20T13:53:34.434Z,68.58
2018-03-20T13:56:02.822Z,68.19
2018-03-20T13:58:31.084Z,67.02
2018-03-20T14:00:59.418Z,66.85
2018-03-20T14:03:27.715Z,66.93
2018-03-20T14:05:56.032Z,67.87
2018-03-20T14:08:24.389Z,65.39
2018-03-20T14:10:53.826Z,68.32
2018-03-20T14:13:22.145Z,66.26
2018-03-20T14:15:50.407Z,64.14
2018-03-20T14:18:18.680Z,63.39
2018-03-20T14:20:47.711Z,65.46
2018-03-20T14:23:15.985Z,67.53
2018-03-20T14:25:45.043Z,65.48
2018-03-20T14:28:13.295Z,66.03
2018-03-20T14:30:41.558Z,68.48
2018-03-20T14:33:10.585Z,67.22
2018-03-20T14:35:38.842Z,67.66
2018-03-20T14:38:07.105Z,68.61
2018-03-20T14:40:35.365Z,69.86
2018-03-20T14:43:04.453Z,70.00
2018-03-20T14:45:33.476Z,70.76
2018-03-20T14:48:01.752Z,70.23
2018-03-20T14:50:30.096Z,71.46
2018-03-20T14:52:58.378Z,70.48
2018-03-20T14:55:26.735Z,71.85
2018-03-20T14:57:55.070Z,72.28
2018-03-20T15:00:24.334Z,70.76
2018-03-20T15:02:53.368Z,71.84
2018-03-20T15:05:21.632Z,74.38
2018-03-20T15:07:49.907Z,74.36
2018-03-20T15:10:18.174Z,75.72
2018-03-20T15:12:47.240Z,76.94
2018-03-20T15:15:15.495Z,76.08
2018-03-20T15:17:43.835Z,76.65
2018-03-20T15:20:12.153Z,77.63
2018-03-20T15:22:41.184Z,78.83
2018-03-20T15:25:09.657Z,78.81
2018-03-20T15:27:37.949Z,82.24
2018-03-20T15:30:07.712Z,81.66
2018-03-20T15:32:35.992Z,82.06
2018-03-20T15:35:04.241Z,79.42
2018-03-20T15:37:32.520Z,83.26
2018-03-20T15:40:00.788Z,83.77
2018-03-20T15:42:29.168Z,83.63
2018-03-20T15:44:57.468Z,82.71
2018-03-20T15:47:25.952Z,83.00
2018-03-20T15:49:55.417Z,84.65
2018-03-20T15:52:23.962Z,84.29
2018-03-20T15:54:52.248Z,81.84
2018-03-20T15:57:20.512Z,84.34
2018-03-20T15:59:48.773Z,84.59
2018-03-20T16:02:17.047Z,84.13
2018-03-20T16:04:45.337Z,84.92
2018-03-20T16:07:13.593Z,86.60
2018-03-20T16:09:41.876Z,85.56
2018-03-20T16:12:10.149Z,86.94
2018-03-20T16:14:38.451Z,86.93
2018-03-20T16:17:06.725Z,88.19
2018-03-20T16:19:35.018Z,88.48
2018-03-20T16:22:03.325Z,88.41
2018-03-20T16:24:32.442Z,89.15
2018-03-20T16:27:00.775Z,89.11
2018-03-20T16:29:29.912Z,89.46
2018-03-20T16:31:58.990Z,89.85
2018-03-20T16:34:27.353Z,89.83
2018-03-20T16:36:55.724Z,89.75
2018-03-20T16:39:24.030Z,89.81
2018-03-20T16:41:52.387Z,90.76
2018-03-20T16:44:20.658Z,90.52
2018-03-20T16:46:49.685Z,90.30
2018-03-20T16:49:17.967Z,91.00
2018-03-20T16:51:46.237Z,91.31
2018-03-20T16:54:15.297Z,90.83
2018-03-20T16:56:43.594Z,90.61
2018-03-20T16:59:11.860Z,90.30
2018-03-20T17:01:40.157Z,90.87
2018-03-20T17:04:08.442Z,95.72
2018-03-20T17:06:36.764Z,89.14
2018-03-20T17:09:05.072Z,89.63
2018-03-20T17:11:33.372Z,90.32
2018-03-20T17:14:01.642Z,90.20
2018-03-20T17:16:29.984Z,89.75
2018-03-20T17:18:58.363Z,90.01
2018-03-20T17:21:26.717Z,90.43
2018-03-20T17:23:55.116Z,90.24
2018-03-20T17:26:23.382Z,90.67
2018-03-20T17:28:52.444Z,91.07
2018-03-20T17:31:20.705Z,89.90
2018-03-20T17:33:49.847Z,90.22
2018-03-20T17:36:18.125Z,91.06
2018-03-20T17:38:47.165Z,89.84
2018-03-20T17:41:15.463Z,89.46
2018-03-20T17:43:43.817Z,90.26
2018-03-20T17:46:12.113Z,91.23
2018-03-20T17:48:41.170Z,90.10
2018-03-20T17:51:09.432Z,90.11
2018-03-20T17:53:37.712Z,90.54
2018-03-20T17:56:05.980Z,91.16
2018-03-20T17:58:34.256Z,91.94
2018-03-20T18:01:03.293Z,92.44
2018-03-20T18:03:31.600Z,91.35
2018-03-20T18:06:00.040Z,91.54
2018-03-20T18:08:28.297Z,91.84
2018-03-20T18:10:56.677Z,92.77
2018-03-20T18:13:25.966Z,92.74
2018-03-20T18:15:55.160Z,93.38
2018-03-20T18:18:23.485Z,92.94
2018-03-20T18:20:51.782Z,93.37
2018-03-20T18:23:20.039Z,94.09
2018-03-20T18:25:48.333Z,94.62
2018-03-20T18:28:16.711Z,93.67
2018-03-20T18:30:45.039Z,94.08
2018-03-20T18:33:13.315Z,94.17
2018-03-20T18:35:41.685Z,93.41
2018-03-20T18:38:10.721Z,94.30
2018-03-20T18:40:39.007Z,94.97
2018-03-20T18:43:07.276Z,93.97
2018-03-20T18:45:35.551Z,94.46
2018-03-20T18:48:03.876Z,94.68
2018-03-20T18:50:32.154Z,95.00
2018-03-20T18:53:00.462Z,95.11
2018-03-20T18:55:28.813Z,94.54
2018-03-20T18:57:57.089Z,94.93
2018-03-20T19:00:26.338Z,94.92
2018-03-20T19:02:54.762Z,94.39
2018-03-20T19:05:23.049Z,94.72
2018-03-20T19:07:51.336Z,94.91
2018-03-20T19:10:19.624Z,95.65
2018-03-20T19:12:47.880Z,95.73
2018-03-20T19:15:16.173Z,95.25
2018-03-20T19:17:44.499Z,96.29
2018-03-20T19:20:12.813Z,96.04
2018-03-20T19:22:41.863Z,96.35
2018-03-20T19:25:10.137Z,96.12
2018-03-20T19:27:38.412Z,96.18
2018-03-20T19:30:07.465Z,96.31
2018-03-20T19:32:35.824Z,96.44
2018-03-20T19:35:04.093Z,96.20
2018-03-20T19:37:33.125Z,96.17
2018-03-20T19:40:01.398Z,95.99
2018-03-20T19:42:30.476Z,96.27
2018-03-20T19:44:58.820Z,96.59
2018-03-20T19:47:27.137Z,95.90
2018-03-20T19:49:56.446Z,96.45
2018-03-20T19:52:25.124Z,96.51
2018-03-20T19:54:53.512Z,96.33
2018-03-20T19:57:21.895Z,97.55
2018-03-20T19:59:50.159Z,96.86
2018-03-20T20:02:19.217Z,96.50
2018-03-20T20:04:47.484Z,96.52
2018-03-20T20:07:15.878Z,96.26
2018-03-20T20:09:44.172Z,96.26
2018-03-20T20:12:12.446Z,96.46
2018-03-20T20:14:40.771Z,96.38
2018-03-20T20:17:09.051Z,96.17
2018-03-20T20:19:37.299Z,96.12
2018-03-20T20:22:06.336Z,95.74
2018-03-20T20:24:34.600Z,96.12
2018-03-20T20:27:03.639Z,95.80
2018-03-20T20:29:31.922Z,96.27
2018-03-20T20:32:00.240Z,96.32
2018-03-20T20:34:28.582Z,96.21
2018-03-20T20:36:57.601Z,96.56
2018-03-20T20:39:25.902Z,96.29
2018-03-20T20:41:54.246Z,96.26
2018-03-20T20:44:22.509Z,96.02
2018-03-20T20:46:52.296Z,95.92
2018-03-20T20:49:20.552Z,94.26
2018-03-20T20:51:49.596Z,94.50
2018-03-20T20:54:17.863Z,95.04
2018-03-20T20:56:46.159Z,94.56
2018-03-20T20:59:14.444Z,94.61
2018-03-20T21:01:43.497Z,93.86
2018-03-20T21:04:12.544Z,94.03
2018-03-20T21:06:41.645Z,94.69
2018-03-20T21:09:09.941Z,94.98
2018-03-20T21:11:38.987Z,95.10
2018-03-20T21:14:07.245Z,94.85
2018-03-20T21:16:36.302Z,94.74
2018-03-20T21:19:04.658Z,94.30
2018-03-20T21:21:32.927Z,94.26
2018-03-20T21:24:01.972Z,94.02
2018-03-20T21:26:30.268Z,94.37
2018-03-20T21:28:58.592Z,93.57
2018-03-20T21:31:26.924Z,94.00
2018-03-20T21:33:55.264Z,93.18
2018-03-20T21:36:23.596Z,93.74
2018-03-20T21:38:53.348Z,92.71
2018-03-20T21:41:21.650Z,93.16
2018-03-20T21:43:50.016Z,92.81
2018-03-20T21:46:18.296Z,92.55
2018-03-20T21:48:46.569Z,92.27
2018-03-20T21:51:15.632Z,91.89
2018-03-20T21:53:43.985Z,91.53
2018-03-20T21:56:12.261Z,91.24
2018-03-20T21:58:41.318Z,91.63
2018-03-20T22:01:09.639Z,91.44
2018-03-20T22:03:37.921Z,91.52
2018-03-20T22:06:06.172Z,91.35
2018-03-20T22:08:34.482Z,91.30
2018-03-20T22:11:02.760Z,91.60
2018-03-20T22:13:31.117Z,91.15
2018-03-20T22:15:59.440Z,90.10
2018-03-20T22:18:28.111Z,90.87
2018-03-20T22:20:57.333Z,90.75
2018-03-20T22:23:25.760Z,90.39
2018-03-20T22:25:54.174Z,90.12
2018-03-20T22:28:22.602Z,91.48
2018-03-20T22:30:50.868Z,90.35
2018-03-20T22:33:19.925Z,90.52
2018-03-20T22:35:48.288Z,90.09
2018-03-20T22:38:17.377Z,90.45
2018-03-20T22:40:46.452Z,89.66
2018-03-20T22:43:14.798Z,89.15
2018-03-20T22:45:43.064Z,89.10
2018-03-20T22:48:12.193Z,88.73
2018-03-20T22:50:40.446Z,89.13
2018-03-20T22:53:09.476Z,87.58
2018-03-20T22:55:37.731Z,88.26
2018-03-20T22:58:05.994Z,88.22
2018-03-20T23:00:34.257Z,88.78
2018-03-20T23:03:02.548Z,87.99
2018-03-20T23:05:30.871Z,87.66
2018-03-20T23:07:59.291Z,87.68
2018-03-20T23:10:28.761Z,88.09
2018-03-20T23:12:57.977Z,89.15
2018-03-20T23:15:26.323Z,89.36
2018-03-20T23:17:54.746Z,88.74
2018-03-20T23:20:23.035Z,88.32
2018-03-20T23:22:51.333Z,88.96
2018-03-20T23:25:19.603Z,89.59
2018-03-20T23:27:47.994Z,89.10
2018-03-20T23:30:17.427Z,88.63
2018-03-20T23:32:45.700Z,88.21
2018-03-20T23:35:13.970Z,88.17
2018-03-20T23:37:43.013Z,88.32
2018-03-20T23:40:11.296Z,87.63
2018-03-20T23:42:39.563Z,88.42
2018-03-20T23:45:09.216Z,88.23
2018-03-20T23:47:37.497Z,89.09
2018-03-20T23:50:05.804Z,89.57
2018-03-20T23:52:34.076Z,90.18
2018-03-20T23:55:02.340Z,89.86
2018-03-20T23:57:32.113Z,88.86
